createdAt,value
2023-03-17T00:02:03.699Z,14.45
2023-03-17T00:04:33.418Z,14.40
2023-03-17T00:07:02.495Z,13.37
2023-03-17T00:09:31.773Z,13.80
2023-03-17T00:12:01.029Z,13.93
2023-03-17T00:14:30.954Z,14.57
2023-03-17T00:17:00.020Z,14.75
2023-03-17T00:19:34.301Z,15.37
2023-03-17T00:22:06.674Z,14.88
2023-03-17T00:24:36.441Z,15.27
2023-03-17T00:27:13.327Z,13.50
2023-03-17T00:29:42.696Z,14.73
2023-03-17T00:32:18.593Z,13.55
2023-03-17T00:34:49.388Z,13.85
2023-03-17T00:37:18.460Z,13.57
2023-03-17T00:39:47.737Z,14.85
2023-03-17T00:42:17.516Z,13.50
2023-03-17T00:44:47.358Z,13.32
2023-03-17T00:47:16.455Z,14.20
2023-03-17T00:49:46.598Z,14.40
2023-03-17T00:52:17.022Z,13.88
2023-03-17T00:54:46.910Z,13.57
2023-03-17T00:57:15.985Z,12.70
2023-03-17T00:59:45.454Z,13.57
2023-03-17T01:02:14.945Z,13.95
2023-03-17T01:04:49.949Z,13.63
2023-03-17T01:07:24.284Z,12.48
2023-03-17T01:09:53.764Z,13.38
2023-03-17T01:12:22.781Z,13.77
2023-03-17T01:14:52.748Z,13.03
2023-03-17T01:17:23.065Z,11.55
2023-03-17T01:19:52.798Z,12.65
2023-03-17T01:22:23.569Z,11.50
2023-03-17T01:24:53.021Z,11.80
2023-03-17T01:27:22.041Z,12.02
2023-03-17T01:29:54.577Z,11.43
2023-03-17T01:32:23.744Z,11.35
2023-03-17T01:34:53.532Z,12.15
2023-03-17T01:37:23.980Z,12.10
2023-03-17T01:39:53.932Z,11.38
2023-03-17T01:42:23.056Z,11.40
2023-03-17T01:45:00.842Z,11.05
2023-03-17T01:47:31.986Z,11.68
2023-03-17T01:50:06.382Z,11.88
2023-03-17T01:52:39.713Z,11.52
2023-03-17T01:55:13.237Z,12.05
2023-03-17T01:57:45.643Z,12.57
2023-03-17T02:00:18.044Z,12.02
2023-03-17T02:02:48.905Z,12.63
2023-03-17T02:05:23.060Z,12.82
2023-03-17T02:07:53.941Z,12.52
2023-03-17T02:10:30.303Z,12.98
2023-03-17T02:13:03.951Z,14.00
2023-03-17T02:15:41.450Z,13.20
2023-03-17T02:18:11.616Z,13.85
2023-03-17T02:23:45.869Z,13.52
2023-03-17T02:26:15.461Z,13.05
2023-03-17T02:28:46.092Z,13.25
2023-03-17T02:31:16.528Z,13.93
2023-03-17T02:33:46.065Z,14.60
2023-03-17T02:36:15.753Z,13.63
2023-03-17T02:38:48.795Z,14.32
2023-03-17T02:41:18.294Z,13.30
2023-03-17T02:43:47.679Z,14.45
2023-03-17T02:46:17.477Z,13.88
2023-03-17T02:48:47.615Z,13.60
2023-03-17T02:53:47.139Z,14.18
2023-03-17T02:56:16.851Z,13.63
2023-03-17T02:58:46.507Z,11.43
2023-03-17T03:01:16.714Z,11.55
2023-03-17T03:03:45.986Z,11.23
2023-03-17T03:06:16.396Z,9.80
2023-03-17T03:08:46.138Z,11.18
2023-03-17T03:11:16.834Z,10.70
2023-03-17T03:16:16.114Z,11.35
2023-03-17T03:18:45.121Z,10.45
2023-03-17T03:21:14.586Z,11.70
2023-03-17T03:23:43.832Z,11.50
2023-03-17T03:26:13.124Z,12.00
2023-03-17T03:28:43.680Z,11.38
2023-03-17T03:31:13.941Z,10.93
2023-03-17T03:33:43.986Z,11.27
2023-03-17T03:36:13.454Z,12.77
2023-03-17T03:38:42.766Z,11.50
2023-03-17T03:41:13.105Z,11.35
2023-03-17T03:43:43.528Z,10.05
2023-03-17T03:46:12.911Z,11.00
2023-03-17T03:48:41.878Z,11.15
2023-03-17T03:51:11.240Z,9.82
2023-03-17T03:53:40.389Z,9.05
2023-03-17T03:56:10.018Z,9.40
2023-03-17T03:58:39.116Z,9.15
2023-03-17T04:01:10.716Z,8.23
2023-03-17T04:03:40.184Z,8.73
2023-03-17T04:06:09.528Z,9.70
2023-03-17T04:08:38.534Z,9.23
2023-03-17T04:11:08.767Z,10.55
2023-03-17T04:13:38.457Z,9.88
2023-03-17T04:16:09.874Z,11.57
2023-03-17T04:18:39.002Z,11.32
2023-03-17T04:21:08.650Z,10.40
2023-03-17T04:23:37.666Z,11.53
2023-03-17T04:26:07.434Z,12.30
2023-03-17T04:28:36.486Z,13.55
2023-03-17T04:31:06.411Z,13.98
2023-03-17T04:33:36.904Z,14.07
2023-03-17T04:36:07.763Z,14.52
2023-03-17T04:38:36.859Z,14.60
2023-03-17T04:41:06.320Z,14.73
2023-03-17T04:43:35.343Z,14.38
2023-03-17T04:46:04.883Z,14.68
2023-03-17T04:48:35.308Z,14.75
2023-03-17T04:51:05.096Z,17.30
2023-03-17T04:53:34.165Z,17.02
2023-03-17T04:56:03.492Z,18.92
2023-03-17T04:58:32.579Z,18.13
2023-03-17T05:01:02.607Z,18.15
2023-03-17T05:03:31.764Z,21.77
2023-03-17T05:06:03.191Z,21.00
2023-03-17T05:08:32.820Z,22.67
2023-03-17T05:11:02.297Z,20.98
2023-03-17T05:13:31.447Z,23.00
2023-03-17T05:16:01.550Z,23.73
2023-03-17T05:18:30.811Z,23.45
2023-03-17T05:21:01.641Z,22.88
2023-03-17T05:23:30.738Z,23.90
2023-03-17T05:26:00.157Z,23.83
2023-03-17T05:28:29.262Z,22.70
2023-03-17T05:30:58.793Z,22.42
2023-03-17T05:33:28.940Z,21.38
2023-03-17T05:35:58.509Z,21.77
2023-03-17T05:38:29.705Z,20.98
2023-03-17T05:40:59.048Z,21.33
2023-03-17T05:43:28.087Z,22.25
2023-03-17T05:45:57.547Z,23.17
2023-03-17T05:48:26.593Z,22.75
2023-03-17T05:50:55.981Z,24.50
2023-03-17T05:53:25.269Z,23.85
2023-03-17T05:55:56.897Z,23.30
2023-03-17T05:58:26.979Z,22.50
2023-03-17T06:00:57.000Z,21.30
2023-03-17T06:03:26.212Z,22.75
2023-03-17T06:05:55.756Z,22.00
2023-03-17T06:08:24.797Z,21.20
2023-03-17T06:10:55.564Z,20.75
2023-03-17T06:13:24.585Z,20.30
2023-03-17T06:15:53.854Z,20.55
2023-03-17T06:18:22.960Z,20.73
2023-03-17T06:20:52.259Z,19.63
2023-03-17T06:23:21.717Z,21.23
2023-03-17T06:25:51.082Z,20.88
2023-03-17T06:28:21.470Z,20.85
2023-03-17T06:30:51.129Z,20.73
2023-03-17T06:33:20.247Z,21.47
2023-03-17T06:35:49.578Z,19.30
2023-03-17T06:38:18.946Z,20.30
2023-03-17T06:40:48.335Z,20.75
2023-03-17T06:43:17.558Z,20.33
2023-03-17T06:45:48.569Z,20.17
2023-03-17T06:48:17.924Z,18.55
2023-03-17T06:50:49.104Z,18.85
2023-03-17T06:53:18.249Z,19.42
2023-03-17T06:55:48.247Z,19.63
2023-03-17T06:58:17.303Z,18.58
2023-03-17T07:00:48.943Z,18.90
2023-03-17T07:03:18.127Z,18.77
2023-03-17T07:05:47.785Z,18.47
2023-03-17T07:08:17.914Z,18.40
2023-03-17T07:10:47.352Z,18.60
2023-03-17T07:13:16.331Z,18.30
2023-03-17T07:15:48.306Z,18.80
2023-03-17T07:18:17.447Z,17.65
2023-03-17T07:20:46.865Z,19.02
2023-03-17T07:23:23.437Z,18.83
2023-03-17T07:25:52.836Z,18.52
2023-03-17T07:28:21.867Z,18.70
2023-03-17T07:30:53.118Z,18.30
2023-03-17T07:33:22.452Z,19.20
2023-03-17T07:35:52.520Z,20.40
2023-03-17T07:38:22.220Z,19.73
2023-03-17T07:40:53.023Z,19.95
2023-03-17T07:43:22.620Z,18.88
2023-03-17T07:45:53.379Z,19.10
2023-03-17T07:48:22.619Z,18.38
2023-03-17T07:50:52.353Z,17.97
2023-03-17T07:53:21.399Z,18.63
2023-03-17T07:55:50.750Z,18.83
2023-03-17T07:58:20.280Z,18.60
2023-03-17T08:00:49.987Z,18.38
2023-03-17T08:03:20.447Z,18.73
2023-03-17T08:05:55.357Z,19.17
2023-03-17T08:08:24.996Z,18.40
2023-03-17T08:10:54.649Z,18.60
2023-03-17T08:13:24.719Z,18.13
2023-03-17T08:18:24.819Z,18.15
2023-03-17T08:20:54.197Z,18.40
2023-03-17T08:23:23.529Z,18.75
2023-03-17T08:25:57.119Z,18.80
2023-03-17T08:28:26.259Z,19.08
2023-03-17T08:30:55.892Z,18.57
2023-03-17T08:33:26.354Z,17.80
2023-03-17T08:35:55.911Z,17.77
2023-03-17T08:38:24.911Z,17.05
2023-03-17T08:40:54.254Z,17.38
2023-03-17T08:43:23.984Z,16.45
2023-03-17T08:45:53.996Z,18.98
2023-03-17T08:48:23.152Z,18.23
2023-03-17T08:50:53.823Z,18.23
2023-03-17T08:53:22.874Z,16.63
2023-03-17T08:55:55.726Z,16.70
2023-03-17T08:58:25.129Z,16.70
2023-03-17T09:00:55.158Z,16.30
2023-03-17T09:03:24.189Z,15.27
2023-03-17T09:05:55.070Z,15.88
2023-03-17T09:08:24.329Z,16.13
2023-03-17T09:10:54.252Z,16.47
2023-03-17T09:13:23.788Z,14.88
2023-03-17T09:15:53.251Z,15.63
2023-03-17T09:18:22.282Z,16.17
2023-03-17T09:20:52.895Z,17.13
2023-03-17T09:25:53.377Z,14.70
2023-03-17T09:28:22.403Z,16.30
2023-03-17T09:30:52.845Z,14.45
2023-03-17T09:33:22.639Z,16.65
2023-03-17T09:35:57.030Z,15.85
2023-03-17T09:38:27.480Z,16.05
2023-03-17T09:41:04.561Z,16.90
2023-03-17T09:43:45.084Z,17.20
2023-03-17T09:46:36.099Z,16.25
2023-03-17T09:49:10.747Z,16.50
2023-03-17T09:51:43.194Z,16.25
2023-03-17T09:54:18.426Z,15.57
2023-03-17T09:56:52.168Z,14.60
2023-03-17T09:59:31.386Z,14.20
2023-03-17T10:02:01.019Z,15.80
2023-03-17T10:04:30.113Z,15.05
2023-03-17T10:07:05.111Z,14.45
2023-03-17T10:09:40.207Z,15.35
2023-03-17T10:12:16.695Z,14.63
2023-03-17T10:14:59.515Z,14.75
2023-03-17T10:17:33.454Z,13.45
2023-03-17T10:20:08.342Z,12.18
2023-03-17T10:22:42.795Z,11.32
2023-03-17T10:25:17.850Z,12.40
2023-03-17T10:27:52.317Z,11.52
2023-03-17T10:30:23.563Z,10.52
2023-03-17T10:32:53.745Z,10.93
2023-03-17T10:35:25.616Z,11.60
2023-03-17T10:38:11.835Z,10.73
2023-03-17T10:40:45.364Z,10.05
2023-03-17T10:43:20.699Z,10.07
2023-03-17T10:46:00.258Z,9.05
2023-03-17T10:48:32.196Z,8.30
2023-03-17T10:51:01.206Z,9.52
2023-03-17T10:53:43.064Z,10.30
2023-03-17T10:56:24.522Z,9.95
2023-03-17T10:58:57.006Z,9.48
2023-03-17T11:01:31.300Z,9.02
2023-03-17T11:04:02.690Z,9.60
2023-03-17T11:06:38.103Z,8.93
2023-03-17T11:09:12.544Z,10.15
2023-03-17T11:11:46.999Z,10.20
2023-03-17T11:14:18.715Z,9.60
2023-03-17T11:16:54.783Z,9.57
2023-03-17T11:19:33.400Z,8.93
2023-03-17T11:22:11.647Z,7.50
2023-03-17T11:24:51.362Z,8.65
2023-03-17T11:27:30.430Z,7.85
2023-03-17T11:30:16.847Z,6.23
2023-03-17T11:32:53.266Z,8.27
2023-03-17T11:35:43.455Z,8.77
2023-03-17T11:38:24.420Z,9.07
2023-03-17T11:41:28.288Z,9.38
2023-03-17T11:44:24.123Z,10.35
2023-03-17T11:47:01.105Z,10.48
2023-03-17T11:49:37.077Z,9.95
2023-03-17T11:52:13.427Z,10.32
2023-03-17T11:54:55.982Z,10.32
2023-03-17T11:57:33.011Z,10.02
2023-03-17T12:00:07.074Z,10.30
2023-03-17T12:02:44.728Z,9.65
2023-03-17T12:05:17.731Z,10.15
2023-03-17T12:07:53.267Z,10.93
2023-03-17T12:10:26.319Z,10.88
2023-03-17T12:13:02.364Z,9.20
2023-03-17T12:15:36.288Z,9.75
2023-03-17T12:18:13.307Z,10.18
2023-03-17T12:20:50.963Z,10.77
2023-03-17T12:23:29.914Z,12.25
2023-03-17T12:26:03.814Z,11.38
2023-03-17T12:28:42.417Z,11.95
2023-03-17T12:31:18.395Z,11.18
2023-03-17T12:33:53.588Z,11.95
2023-03-17T12:36:23.728Z,10.88
2023-03-17T12:38:57.784Z,10.40
2023-03-17T12:41:40.116Z,11.25
2023-03-17T12:44:24.050Z,12.13
2023-03-17T12:47:27.950Z,11.93
2023-03-17T12:50:43.700Z,12.05
2023-03-17T12:53:30.452Z,12.23
2023-03-17T12:56:07.537Z,12.18
2023-03-17T12:58:41.893Z,10.80
2023-03-17T13:01:24.210Z,11.88
2023-03-17T13:04:15.832Z,11.20
2023-03-17T13:06:48.179Z,10.73
2023-03-17T13:09:47.250Z,11.20
2023-03-17T13:12:53.032Z,10.63
2023-03-17T13:15:56.113Z,11.63
2023-03-17T13:18:49.472Z,11.02
2023-03-17T13:21:24.972Z,9.93
2023-03-17T13:24:16.705Z,10.70
2023-03-17T13:26:55.345Z,10.32
2023-03-17T13:29:28.013Z,10.57
2023-03-17T13:32:29.316Z,10.77
2023-03-17T13:35:22.221Z,9.40
2023-03-17T13:38:20.783Z,10.20
2023-03-17T13:41:02.062Z,9.93
2023-03-17T13:43:57.783Z,9.82
2023-03-17T13:46:41.350Z,10.27
2023-03-17T13:49:25.613Z,9.23
2023-03-17T13:52:00.440Z,11.00
2023-03-17T13:54:41.718Z,10.60
2023-03-17T13:57:27.323Z,10.63
2023-03-17T14:00:03.081Z,10.70
2023-03-17T14:02:37.880Z,10.23
2023-03-17T14:05:09.866Z,10.38
2023-03-17T14:07:48.032Z,8.70
2023-03-17T14:10:22.414Z,11.15
2023-03-17T14:12:58.719Z,10.50
2023-03-17T14:15:33.941Z,8.95
2023-03-17T14:18:09.587Z,10.07
2023-03-17T14:20:38.730Z,10.52
2023-03-17T14:23:10.404Z,9.73
2023-03-17T14:25:43.100Z,9.90
2023-03-17T14:28:18.176Z,9.95
2023-03-17T14:30:54.969Z,9.25
2023-03-17T14:33:26.920Z,9.05
2023-03-17T14:35:59.064Z,8.48
2023-03-17T14:38:30.510Z,8.50
2023-03-17T14:41:05.684Z,8.68
2023-03-17T14:43:37.838Z,8.80
2023-03-17T14:46:08.766Z,8.85
2023-03-17T14:48:41.471Z,8.68
2023-03-17T14:51:23.864Z,10.23
2023-03-17T14:53:55.115Z,8.77
2023-03-17T14:56:30.627Z,9.10
2023-03-17T14:59:07.944Z,9.13
2023-03-17T15:01:39.780Z,9.27
2023-03-17T15:04:13.208Z,9.60
2023-03-17T15:06:51.206Z,9.07
2023-03-17T15:09:25.862Z,7.68
2023-03-17T15:12:02.349Z,9.45
2023-03-17T15:14:34.715Z,8.35
2023-03-17T15:17:05.699Z,9.38
2023-03-17T15:19:41.995Z,10.13
2023-03-17T15:22:25.848Z,9.30
2023-03-17T15:25:01.784Z,9.40
2023-03-17T15:27:33.252Z,9.07
2023-03-17T15:30:03.220Z,8.30
2023-03-17T15:32:32.412Z,9.30
2023-03-17T15:35:01.802Z,7.05
2023-03-17T15:37:32.761Z,9.75
2023-03-17T15:40:05.480Z,8.18
2023-03-17T15:42:37.489Z,8.23
2023-03-17T15:45:08.502Z,6.75
2023-03-17T15:47:40.076Z,8.13
2023-03-17T15:50:17.905Z,8.88
2023-03-17T15:52:47.604Z,8.95
2023-03-17T15:55:20.926Z,9.07
2023-03-17T15:57:55.257Z,8.27
2023-03-17T16:00:26.606Z,8.95
2023-03-17T16:02:58.084Z,8.98
2023-03-17T16:05:29.418Z,8.52
2023-03-17T16:07:58.771Z,9.55
2023-03-17T16:10:30.589Z,9.13
2023-03-17T16:13:01.389Z,9.43
2023-03-17T16:15:35.193Z,8.38
2023-03-17T16:18:07.555Z,8.68
2023-03-17T16:20:40.573Z,8.68
2023-03-17T16:23:15.552Z,9.32
2023-03-17T16:25:45.759Z,7.88
2023-03-17T16:28:20.314Z,8.70
2023-03-17T16:30:51.600Z,9.38
2023-03-17T16:33:22.996Z,8.95
2023-03-17T16:35:53.603Z,8.20
2023-03-17T16:38:24.967Z,8.32
2023-03-17T16:40:56.070Z,8.95
2023-03-17T16:43:29.437Z,8.27
2023-03-17T16:46:00.931Z,8.57
2023-03-17T16:48:31.074Z,8.07
2023-03-17T16:51:00.835Z,8.35
2023-03-17T16:53:29.827Z,9.63
2023-03-17T16:55:59.454Z,8.30
2023-03-17T16:58:33.633Z,8.70
2023-03-17T17:01:07.645Z,9.18
2023-03-17T17:03:37.905Z,9.25
2023-03-17T17:06:08.805Z,8.13
2023-03-17T17:08:37.884Z,8.98
2023-03-17T17:11:07.752Z,9.47
2023-03-17T17:13:38.975Z,9.27
2023-03-17T17:16:13.014Z,8.73
2023-03-17T17:18:42.134Z,9.13
2023-03-17T17:21:11.432Z,9.57
2023-03-17T17:23:40.450Z,8.82
2023-03-17T17:26:09.793Z,9.23
2023-03-17T17:28:40.432Z,8.95
2023-03-17T17:31:10.774Z,9.63
2023-03-17T17:33:40.402Z,9.63
2023-03-17T17:36:15.664Z,9.38
2023-03-17T17:38:45.392Z,10.13
2023-03-17T17:41:17.002Z,9.40
2023-03-17T17:43:47.757Z,8.77
2023-03-17T17:46:19.371Z,10.13
2023-03-17T17:48:48.890Z,10.77
2023-03-17T17:51:18.319Z,10.60
2023-03-17T17:53:47.386Z,9.93
2023-03-17T17:56:18.631Z,11.00
2023-03-17T17:58:51.305Z,10.88
2023-03-17T18:01:22.661Z,11.23
2023-03-17T18:03:52.016Z,11.95
2023-03-17T18:06:21.484Z,11.57
2023-03-17T18:08:51.572Z,10.60
2023-03-17T18:11:20.986Z,9.95
2023-03-17T18:13:51.542Z,10.80
2023-03-17T18:16:21.216Z,11.02
2023-03-17T18:18:50.740Z,9.00
2023-03-17T18:21:20.106Z,9.32
2023-03-17T18:23:50.076Z,10.68
2023-03-17T18:28:51.450Z,14.23
2023-03-17T18:31:23.895Z,13.45
2023-03-17T18:33:57.889Z,11.07
2023-03-17T18:36:28.701Z,10.45
2023-03-17T18:38:58.366Z,10.93
2023-03-17T18:41:28.318Z,14.93
2023-03-17T18:43:58.849Z,11.73
2023-03-17T18:46:28.244Z,15.98
2023-03-17T18:48:57.291Z,17.33
2023-03-17T18:51:26.715Z,12.40
2023-03-17T18:53:56.140Z,11.50
2023-03-17T18:56:29.036Z,11.55
2023-03-17T18:59:00.609Z,13.02
2023-03-17T19:01:30.097Z,12.43
2023-03-17T19:03:59.150Z,12.48
2023-03-17T19:06:28.475Z,15.10
2023-03-17T19:08:57.998Z,12.95
2023-03-17T19:11:27.310Z,13.63
2023-03-17T19:13:56.489Z,15.13
2023-03-17T19:16:28.969Z,11.57
2023-03-17T19:18:58.769Z,13.73
2023-03-17T19:21:28.608Z,12.20
2023-03-17T19:24:01.892Z,12.65
2023-03-17T19:26:33.399Z,12.00
2023-03-17T19:29:02.567Z,14.27
2023-03-17T19:31:41.177Z,13.50
2023-03-17T19:34:11.707Z,13.88
2023-03-17T19:36:42.821Z,13.27
2023-03-17T19:39:13.972Z,17.55
2023-03-17T19:41:43.323Z,14.52
2023-03-17T19:44:12.456Z,13.73
2023-03-17T19:46:43.184Z,12.05
2023-03-17T19:51:42.508Z,12.30
2023-03-17T19:54:11.967Z,12.43
2023-03-17T19:56:41.361Z,11.52
2023-03-17T19:59:10.432Z,11.60
2023-03-17T20:01:40.210Z,13.23
2023-03-17T20:04:17.509Z,11.50
2023-03-17T20:06:47.648Z,12.35
2023-03-17T20:09:17.043Z,11.60
2023-03-17T20:11:46.979Z,12.80
2023-03-17T20:14:16.204Z,10.38
2023-03-17T20:16:45.506Z,12.13
2023-03-17T20:19:16.023Z,12.27
2023-03-17T20:21:45.476Z,12.13
2023-03-17T20:24:14.834Z,10.73
2023-03-17T20:26:44.812Z,10.80
2023-03-17T20:29:14.496Z,11.20
2023-03-17T20:31:44.252Z,11.65
2023-03-17T20:34:13.777Z,9.70
2023-03-17T20:36:44.825Z,12.35
2023-03-17T20:39:19.664Z,10.50
2023-03-17T20:41:49.508Z,10.27
2023-03-17T20:44:19.395Z,11.48
2023-03-17T20:46:48.867Z,10.68
2023-03-17T20:49:18.013Z,10.10
2023-03-17T20:51:48.800Z,11.75
2023-03-17T20:54:17.975Z,12.35
2023-03-17T20:56:48.942Z,11.88
2023-03-17T20:59:18.075Z,10.63
2023-03-17T21:01:47.697Z,13.00
2023-03-17T21:04:17.724Z,12.13
2023-03-17T21:11:47.981Z,11.00
2023-03-17T21:16:47.344Z,12.10
2023-03-17T21:19:17.569Z,11.30
2023-03-17T21:21:48.395Z,13.30
2023-03-17T21:24:27.471Z,10.65
2023-03-17T21:26:56.811Z,12.43
2023-03-17T21:29:25.854Z,16.13
2023-03-17T21:31:56.865Z,13.48
2023-03-17T21:34:26.745Z,13.20
2023-03-17T21:36:58.331Z,11.40
2023-03-17T21:39:29.731Z,12.30
2023-03-17T21:42:00.904Z,12.40
2023-03-17T21:44:32.378Z,11.60
2023-03-17T21:47:03.093Z,12.40
2023-03-17T21:49:32.246Z,12.57
2023-03-17T21:52:03.014Z,11.70
2023-03-17T21:54:32.083Z,14.05
2023-03-17T21:57:01.764Z,13.38
2023-03-17T21:59:34.265Z,14.20
2023-03-17T22:02:03.714Z,16.55
2023-03-17T22:04:32.740Z,14.20
2023-03-17T22:07:04.457Z,12.95
2023-03-17T22:09:34.015Z,13.35
2023-03-17T22:12:04.329Z,12.65
2023-03-17T22:14:35.532Z,15.57
2023-03-17T22:17:06.383Z,11.98
2023-03-17T22:19:35.903Z,11.02
2023-03-17T22:22:06.789Z,12.88
2023-03-17T22:24:36.368Z,12.27
2023-03-17T22:27:05.911Z,13.23
2023-03-17T22:29:35.466Z,12.07
2023-03-17T22:32:05.611Z,12.35
2023-03-17T22:34:34.718Z,12.55
2023-03-17T22:37:05.766Z,12.30
2023-03-17T22:39:35.804Z,10.75
2023-03-17T22:44:34.095Z,11.82
2023-03-17T22:47:03.549Z,11.27
2023-03-17T22:49:32.568Z,10.23
2023-03-17T22:52:01.920Z,11.70
2023-03-17T22:54:32.288Z,11.05
2023-03-17T22:57:01.607Z,11.38
2023-03-17T22:59:30.612Z,10.68
2023-03-17T23:02:00.157Z,11.98
2023-03-17T23:04:29.256Z,11.93
2023-03-17T23:06:59.002Z,11.68
2023-03-17T23:09:28.154Z,12.00
2023-03-17T23:11:59.592Z,12.27
2023-03-17T23:14:28.689Z,11.85
2023-03-17T23:16:57.996Z,18.70
2023-03-17T23:19:27.423Z,13.50
2023-03-17T23:21:57.260Z,16.48
2023-03-17T23:24:26.285Z,11.23
2023-03-17T23:26:57.122Z,11.32
2023-03-17T23:29:27.690Z,13.35
2023-03-17T23:31:57.278Z,11.65
2023-03-17T23:34:26.543Z,12.82
2023-03-17T23:36:56.030Z,11.82
2023-03-17T23:39:25.576Z,11.82
2023-03-17T23:41:55.447Z,11.25
2023-03-17T23:44:25.958Z,11.00
2023-03-17T23:46:55.339Z,10.00
2023-03-17T23:49:24.365Z,10.18
2023-03-17T23:51:54.502Z,11.00
2023-03-17T23:54:24.082Z,10.55
2023-03-17T23:56:54.204Z,10.23
2023-03-17T23:59:24.649Z,11.32
